メインページ
METAR-TAF:

METAR-TAF

空港 :

Jimmy Lake, サスカチュワン州, カナダ

緯度: 54-55N, 経度: 109-57W, 海抜: 658m

現時点の気象観測

当レポートは1時間10分前の10:00(UTC)に作成
西の風 7kt
気温 -3°C
湿度 58%
気圧 1001 hPa
視程: 14.5km
晴天

METAR: CWHN 221000Z AUTO 27007KT 9SM CLR M03/M10 A2957 RMK SLP041

時間: 05:10 (11:10 UTC)


TAF: 見つかりません

4,000以上の空港の気象観測と天気予報(METAR報とTAF報)

利用可能な観測所は地図上に黄色い丸と赤い丸で示す。

丸の上にカーソルを重ねると観測所名を参照できる。

次にクリックすると気象観測と天気予報を参照できる。

マップの切り替え:黒色「×」印の緑ボタンをクリックして拡大、「-」印の緑ボタンをクリックして縮小、緑色の三角印をクリックして隣りの地図に切り替え


METAR-TAF: